Time;durP1;ratioP1;P1;durP2;ratioP2;P2;SDS_P1;SDS_P2;PMS_P1;PMS_P2;Temp;Humidity;BMP_temperature;BMP_pressure;BME280_temperature;BME280_humidity;BME280_pressure;Samples;Min_cycle;Max_cycle;Signal;HPM_P1;HPM_P2
2022/03/11 00:02:13;;;;;;;13.07;5.50;;;3.40;99.70;;;;;;5010189;28;20417;-71
2022/03/11 00:04:38;;;;;;;7.37;5.10;;;3.20;99.90;;;;;;4995847;28;20954;-72
2022/03/11 00:07:04;;;;;;;6.10;3.67;;;3.00;99.90;;;;;;5012642;28;20266;-70
2022/03/11 00:09:29;;;;;;;8.03;5.50;;;2.90;99.90;;;;;;5014001;28;20199;-71
2022/03/11 00:11:55;;;;;;;10.50;5.20;;;2.80;99.90;;;;;;5013014;28;20202;-72
2022/03/11 00:14:21;;;;;;;8.77;4.50;;;2.70;99.90;;;;;;5011538;28;20662;-71
2022/03/11 00:16:47;;;;;;;7.63;5.40;;;2.60;99.90;;;;;;4996486;28;20587;-71
2022/03/11 00:19:12;;;;;;;6.10;4.20;;;2.50;99.90;;;;;;5012674;28;20175;-71
2022/03/11 00:21:38;;;;;;;7.37;5.27;;;2.40;99.90;;;;;;5013736;28;20447;-71
2022/03/11 00:24:04;;;;;;;7.60;4.37;;;2.30;99.90;;;;;;5012900;28;20213;-70
2022/03/11 00:26:32;;;;;;;8.40;4.50;;;2.30;99.90;;;;;;5012268;28;20265;-70
2022/03/11 00:28:58;;;;;;;9.33;5.13;;;2.20;99.90;;;;;;4996704;28;20479;-71
2022/03/11 00:31:24;;;;;;;10.53;5.03;;;2.20;99.90;;;;;;5012013;28;20959;-70
2022/03/11 00:33:50;;;;;;;7.90;4.67;;;2.10;99.90;;;;;;5013198;28;20182;-71
2022/03/11 00:36:16;;;;;;;6.30;4.50;;;2.10;99.90;;;;;;5013203;28;20465;-71
2022/03/11 00:38:42;;;;;;;9.70;4.10;;;2.00;99.90;;;;;;5012441;28;20679;-71
2022/03/11 00:41:07;;;;;;;7.17;4.60;;;2.00;99.90;;;;;;5012397;28;20789;-71
2022/03/11 00:43:33;;;;;;;6.30;5.17;;;1.90;99.90;;;;;;5012679;28;20587;-71
2022/03/11 00:45:59;;;;;;;11.73;5.50;;;1.80;99.90;;;;;;4995550;28;20188;-71
2022/03/11 00:48:24;;;;;;;7.47;4.73;;;1.80;99.90;;;;;;5011904;28;20185;-70
2022/03/11 00:50:50;;;;;;;5.87;4.73;;;1.80;99.90;;;;;;5012192;28;20237;-71
2022/03/11 00:53:16;;;;;;;11.60;5.20;;;1.70;99.90;;;;;;5011447;28;20183;-70
2022/03/11 00:55:41;;;;;;;7.00;4.80;;;1.70;99.90;;;;;;4995909;28;20176;-71
2022/03/11 00:58:07;;;;;;;6.47;4.80;;;1.70;99.90;;;;;;4995938;28;20744;-71
2022/03/11 01:00:32;;;;;;;9.43;5.43;;;1.60;99.90;;;;;;4995419;28;20248;-71
2022/03/11 01:02:58;;;;;;;9.00;5.30;;;1.60;99.90;;;;;;5011381;28;20221;-71
2022/03/11 01:05:24;;;;;;;9.47;5.07;;;1.50;99.90;;;;;;5011520;28;20451;-69
2022/03/11 01:07:51;;;;;;;8.17;4.60;;;1.50;99.90;;;;;;5012174;28;20185;-71
2022/03/11 01:10:16;;;;;;;10.93;5.00;;;1.50;99.90;;;;;;4995546;28;20445;-70
2022/03/11 01:12:43;;;;;;;14.67;6.57;;;1.40;99.90;;;;;;5012339;28;20946;-71
2022/03/11 01:15:09;;;;;;;8.03;5.40;;;1.40;99.90;;;;;;5010389;28;20721;-71
2022/03/11 01:17:35;;;;;;;11.30;5.37;;;1.40;99.90;;;;;;5011631;28;20489;-71
2022/03/11 01:20:01;;;;;;;8.67;5.80;;;1.30;99.90;;;;;;5011891;28;20451;-71
2022/03/11 01:22:27;;;;;;;14.23;6.37;;;1.30;99.90;;;;;;5012514;28;20471;-70
2022/03/11 01:24:52;;;;;;;7.67;5.80;;;1.20;99.90;;;;;;5010993;28;20395;-71
2022/03/11 01:27:18;;;;;;;11.10;6.63;;;1.20;99.90;;;;;;5012407;28;20170;-71
2022/03/11 01:29:44;;;;;;;12.63;7.23;;;1.10;99.90;;;;;;5011265;28;20657;-69
2022/03/11 01:32:10;;;;;;;13.10;6.40;;;1.10;99.90;;;;;;5011321;28;20210;-71
2022/03/11 01:34:35;;;;;;;11.03;6.50;;;1.10;99.90;;;;;;5010499;28;20189;-71
2022/03/11 01:37:01;;;;;;;9.40;6.17;;;1.10;99.90;;;;;;5012951;28;20409;-70
2022/03/11 01:39:26;;;;;;;12.80;5.93;;;1.00;99.90;;;;;;5011023;28;20651;-71
2022/03/11 01:41:52;;;;;;;8.07;5.33;;;0.90;99.90;;;;;;5012155;28;20202;-71
2022/03/11 01:44:18;;;;;;;11.73;7.20;;;1.00;99.90;;;;;;4994267;28;20216;-70
2022/03/11 01:46:43;;;;;;;12.90;7.57;;;1.00;99.90;;;;;;5011026;28;20276;-69
2022/03/11 01:49:10;;;;;;;10.90;7.27;;;0.90;99.90;;;;;;5011131;28;20715;-71
2022/03/11 01:51:41;;;;;;;13.87;7.13;;;0.90;99.90;;;;;;5010315;28;20234;-71
2022/03/11 01:54:07;;;;;;;12.50;6.87;;;0.90;99.90;;;;;;5010579;28;20950;-70
2022/03/11 01:56:33;;;;;;;11.77;6.40;;;0.80;99.90;;;;;;5010908;28;20444;-71
2022/03/11 01:58:59;;;;;;;13.00;7.60;;;0.70;99.90;;;;;;5011078;28;20423;-69
2022/03/11 03:31:00;;;;;;;13.70;8.80;;;-0.40;99.90;;;;;;5940090;22;20517;-71
2022/03/11 03:33:26;;;;;;;17.37;9.87;;;-0.40;99.90;;;;;;4976559;28;20836;-72
2022/03/11 03:35:52;;;;;;;18.20;9.10;;;-0.40;99.90;;;;;;4990826;28;20410;-71
2022/03/11 03:38:17;;;;;;;16.07;9.20;;;-0.30;99.90;;;;;;4990672;28;20191;-67
2022/03/11 03:40:43;;;;;;;17.93;10.30;;;-0.40;99.90;;;;;;4965679;28;20552;-69
2022/03/11 03:43:08;;;;;;;20.20;9.70;;;-0.40;99.90;;;;;;4951517;29;20227;-70
2022/03/11 03:45:34;;;;;;;15.10;9.13;;;-0.30;99.90;;;;;;4951819;28;20178;-70
2022/03/11 03:48:00;;;;;;;15.63;10.00;;;-0.40;99.90;;;;;;4951714;28;20172;-71
2022/03/11 03:50:26;;;;;;;20.23;10.87;;;-0.30;99.90;;;;;;4951823;29;20186;-71
2022/03/11 03:52:52;;;;;;;19.73;9.87;;;-0.40;99.90;;;;;;4951595;28;20435;-71
2022/03/11 03:55:17;;;;;;;20.17;11.10;;;-0.40;99.90;;;;;;4952033;28;20830;-71
2022/03/11 03:57:43;;;;;;;15.20;9.57;;;-0.40;99.90;;;;;;4951736;28;20228;-72
2022/03/11 04:00:09;;;;;;;21.13;11.20;;;-0.40;99.90;;;;;;4952057;29;20178;-70
2022/03/11 04:02:36;;;;;;;19.20;11.57;;;-0.40;99.90;;;;;;4950599;28;20235;-71
2022/03/11 04:05:06;;;;;;;15.60;9.50;;;-0.40;99.90;;;;;;4951465;28;20924;-72
2022/03/11 04:07:31;;;;;;;24.07;11.07;;;-0.40;99.90;;;;;;4951498;29;20946;-71
2022/03/11 04:09:57;;;;;;;19.20;11.40;;;-0.40;99.90;;;;;;4951267;28;20431;-71
2022/03/11 04:12:23;;;;;;;19.03;10.47;;;-0.40;99.90;;;;;;4949390;28;20196;-72
2022/03/11 04:14:48;;;;;;;19.63;10.43;;;-0.40;99.90;;;;;;4951162;28;20524;-71
2022/03/11 04:17:14;;;;;;;17.00;10.50;;;-0.40;99.90;;;;;;4952150;29;20434;-72
2022/03/11 04:19:39;;;;;;;23.50;12.87;;;-0.40;99.90;;;;;;4951356;28;20184;-72
2022/03/11 04:22:05;;;;;;;25.57;12.70;;;-0.40;99.90;;;;;;4951995;28;20229;-71
2022/03/11 04:24:30;;;;;;;23.33;12.90;;;-0.40;99.90;;;;;;4951026;28;20180;-71
2022/03/11 04:26:56;;;;;;;27.27;14.87;;;-0.30;99.90;;;;;;4951818;28;20172;-70
2022/03/11 04:29:23;;;;;;;22.40;12.97;;;-0.10;99.90;;;;;;4951544;29;20580;-71
2022/03/11 04:31:49;;;;;;;24.93;14.00;;;0.00;99.90;;;;;;4951149;28;20687;-71
2022/03/11 04:34:14;;;;;;;27.77;14.80;;;0.10;99.90;;;;;;4951449;29;20405;-72
2022/03/11 04:36:40;;;;;;;30.50;14.10;;;0.20;99.90;;;;;;4951895;29;20228;-72
2022/03/11 04:39:07;;;;;;;33.53;15.73;;;0.40;99.90;;;;;;4951747;29;20192;-71
2022/03/11 04:41:34;;;;;;;23.40;15.10;;;0.50;99.90;;;;;;4951411;28;20216;-72
2022/03/11 04:43:59;;;;;;;24.03;14.33;;;0.70;99.90;;;;;;4950764;28;20987;-72
2022/03/11 04:46:25;;;;;;;27.73;14.30;;;0.80;99.90;;;;;;4951431;28;20387;-71
2022/03/11 04:48:50;;;;;;;25.63;14.27;;;1.00;99.90;;;;;;4954073;28;20172;-72
2022/03/11 04:51:16;;;;;;;28.67;16.47;;;1.10;99.90;;;;;;4955158;28;20622;-72
2022/03/11 04:53:42;;;;;;;25.07;15.07;;;1.10;99.90;;;;;;4954544;28;20210;-72
2022/03/11 04:56:08;;;;;;;23.90;14.40;;;1.20;99.90;;;;;;4954333;29;20468;-72
2022/03/11 04:58:33;;;;;;;23.00;15.00;;;1.20;99.90;;;;;;4954818;29;20185;-72
2022/03/11 05:00:59;;;;;;;29.67;14.53;;;1.20;99.90;;;;;;4955205;28;20267;-72
2022/03/11 05:03:25;;;;;;;24.50;12.83;;;1.30;99.90;;;;;;4953988;28;20293;-71
2022/03/11 05:05:50;;;;;;;30.53;15.10;;;1.40;99.90;;;;;;4955169;28;20512;-72
2022/03/11 05:08:16;;;;;;;24.90;13.50;;;1.40;99.90;;;;;;4954738;29;20291;-72
2022/03/11 05:10:41;;;;;;;25.20;15.20;;;1.50;99.90;;;;;;4954522;28;20554;-72
2022/03/11 05:13:07;;;;;;;27.23;14.63;;;1.50;99.90;;;;;;4954668;28;20248;-71
2022/03/11 05:15:35;;;;;;;24.97;13.07;;;1.50;99.90;;;;;;4954591;28;20174;-72
2022/03/11 05:18:00;;;;;;;19.57;12.20;;;1.50;99.90;;;;;;4954588;28;20172;-72
2022/03/11 05:20:25;;;;;;;21.30;12.10;;;1.50;99.90;;;;;;4952762;29;20444;-71
2022/03/11 05:22:51;;;;;;;24.57;13.40;;;1.50;99.90;;;;;;4954297;28;20219;-72
2022/03/11 05:25:17;;;;;;;22.37;12.80;;;1.50;99.90;;;;;;4954522;29;20612;-72
2022/03/11 05:27:42;;;;;;;26.83;12.40;;;1.50;99.90;;;;;;4954648;29;20177;-75
2022/03/11 05:30:09;;;;;;;24.67;13.37;;;1.50;99.90;;;;;;4953996;29;20178;-75
2022/03/11 05:32:43;;;;;;;20.30;12.47;;;1.50;99.90;;;;;;4954482;28;20662;-75
2022/03/11 05:35:09;;;;;;;20.70;12.17;;;1.60;99.90;;;;;;4954439;28;20790;-74
2022/03/11 05:37:35;;;;;;;18.90;11.57;;;1.60;99.90;;;;;;4955061;28;20909;-74
2022/03/11 05:40:01;;;;;;;20.50;10.90;;;1.60;99.90;;;;;;4955274;28;20671;-74
2022/03/11 05:42:26;;;;;;;15.97;10.83;;;1.60;99.90;;;;;;4954147;28;20245;-72
2022/03/11 05:44:51;;;;;;;16.50;9.90;;;1.60;99.90;;;;;;4953821;29;20210;-72
2022/03/11 05:47:17;;;;;;;20.63;11.07;;;1.70;99.90;;;;;;4954754;29;20664;-72
2022/03/11 05:49:42;;;;;;;23.00;10.83;;;1.70;99.90;;;;;;4954797;28;20186;-72
2022/03/11 05:52:08;;;;;;;17.83;10.70;;;1.70;99.90;;;;;;4969197;28;20574;-72
2022/03/11 05:54:34;;;;;;;15.57;9.90;;;1.70;99.90;;;;;;4949871;28;20179;-72
2022/03/11 05:57:00;;;;;;;22.03;11.30;;;1.70;99.90;;;;;;4954304;28;20229;-72
2022/03/11 05:59:26;;;;;;;16.90;9.87;;;1.70;99.90;;;;;;4953258;28;20790;-72
2022/03/11 06:01:52;;;;;;;17.43;9.60;;;1.70;99.90;;;;;;4953683;28;20444;-72
2022/03/11 06:04:18;;;;;;;24.70;10.97;;;2.00;99.90;;;;;;4953072;29;20302;-72
2022/03/11 06:06:43;;;;;;;16.00;9.60;;;2.30;99.90;;;;;;4953537;29;20180;-72
2022/03/11 06:09:09;;;;;;;16.43;9.23;;;2.60;99.90;;;;;;4953319;28;20556;-73
2022/03/11 06:11:35;;;;;;;18.63;10.10;;;3.00;99.90;;;;;;4953505;28;20215;-73
2022/03/11 06:14:00;;;;;;;18.33;9.53;;;3.60;99.90;;;;;;4953253;28;20186;-73
2022/03/11 06:16:26;;;;;;;17.70;8.93;;;4.40;99.90;;;;;;4953363;28;20431;-72
2022/03/11 06:18:51;;;;;;;16.47;9.43;;;5.20;99.90;;;;;;4964666;28;20562;-73
2022/03/11 06:21:17;;;;;;;14.40;9.70;;;6.10;99.90;;;;;;4972070;28;20208;-72
2022/03/11 06:23:42;;;;;;;15.70;10.40;;;6.90;99.90;;;;;;4971842;28;20291;-73
2022/03/11 06:26:08;;;;;;;15.07;9.43;;;7.30;99.90;;;;;;4972172;28;20180;-73
2022/03/11 06:28:33;;;;;;;16.63;9.60;;;7.50;99.90;;;;;;4978345;28;20273;-73
2022/03/11 06:30:59;;;;;;;21.10;9.50;;;7.90;99.90;;;;;;4977650;28;20214;-73
2022/03/11 06:33:24;;;;;;;16.67;9.87;;;8.30;98.60;;;;;;4982946;28;20659;-73
2022/03/11 06:35:51;;;;;;;13.10;8.97;;;8.90;97.00;;;;;;4990269;28;20186;-74
2022/03/11 06:38:17;;;;;;;16.70;11.40;;;9.30;96.30;;;;;;4991752;28;20179;-73
2022/03/11 06:40:42;;;;;;;14.07;9.43;;;9.50;93.90;;;;;;4991398;28;20786;-73
2022/03/11 06:43:08;;;;;;;14.80;9.40;;;9.30;93.40;;;;;;4991683;28;20462;-73
2022/03/11 06:45:34;;;;;;;16.63;9.63;;;9.40;92.50;;;;;;4990936;28;20175;-73
2022/03/11 06:47:59;;;;;;;14.70;9.23;;;9.50;91.60;;;;;;4991980;28;20180;-74
2022/03/11 06:50:25;;;;;;;16.73;9.80;;;9.80;90.80;;;;;;4991268;28;20585;-74
2022/03/11 06:52:51;;;;;;;8.27;7.40;;;10.00;89.50;;;;;;4990576;28;20207;-73
2022/03/11 06:55:17;;;;;;;13.03;8.47;;;9.70;89.10;;;;;;4991708;28;20179;-73
2022/03/11 06:57:44;;;;;;;13.10;9.63;;;9.90;88.50;;;;;;4992038;28;20218;-73
2022/03/11 07:00:11;;;;;;;14.80;9.03;;;10.20;87.30;;;;;;4991716;28;20505;-75
2022/03/11 07:02:37;;;;;;;12.80;9.20;;;11.10;86.50;;;;;;4991127;28;20532;-75
2022/03/11 07:05:03;;;;;;;11.70;9.00;;;11.60;83.40;;;;;;4990433;28;20414;-74
2022/03/11 07:07:30;;;;;;;8.83;7.70;;;11.70;80.60;;;;;;4991298;28;20476;-74
2022/03/11 07:09:56;;;;;;;12.63;9.20;;;12.00;80.30;;;;;;4991490;28;20411;-74
2022/03/11 07:12:22;;;;;;;10.53;8.50;;;11.70;77.90;;;;;;4990386;28;20491;-74
2022/03/11 07:14:48;;;;;;;16.20;9.17;;;11.80;77.60;;;;;;4990688;28;20187;-75
2022/03/11 07:17:14;;;;;;;9.90;7.47;;;12.20;77.00;;;;;;4991220;28;20201;-75
2022/03/11 07:19:40;;;;;;;12.80;8.37;;;12.60;75.10;;;;;;4990557;28;20415;-74
2022/03/11 07:22:07;;;;;;;9.30;8.13;;;12.80;73.70;;;;;;4991521;28;20469;-74
2022/03/11 07:24:33;;;;;;;15.57;7.90;;;12.80;72.50;;;;;;4990668;28;20222;-74
2022/03/11 07:26:59;;;;;;;14.90;8.20;;;13.00;72.60;;;;;;4990978;28;20415;-74
2022/03/11 07:29:24;;;;;;;13.33;8.60;;;13.10;70.80;;;;;;4990957;28;20930;-73
2022/03/11 07:31:50;;;;;;;15.83;9.60;;;12.70;70.90;;;;;;4990342;28;20461;-74
2022/03/11 07:34:16;;;;;;;13.80;8.83;;;11.80;70.30;;;;;;4990435;28;20636;-74
2022/03/11 07:36:42;;;;;;;13.73;8.20;;;11.80;71.50;;;;;;4990574;28;20226;-73
2022/03/11 07:39:09;;;;;;;14.10;9.10;;;11.40;71.00;;;;;;4987994;28;20425;-75
2022/03/11 07:41:35;;;;;;;13.80;8.23;;;11.20;71.90;;;;;;4989836;28;20474;-75
2022/03/11 07:44:02;;;;;;;13.37;7.87;;;10.50;72.00;;;;;;4989371;28;20746;-76
2022/03/11 07:46:29;;;;;;;12.00;8.80;;;10.10;73.30;;;;;;4969191;28;20866;-75
2022/03/11 07:48:55;;;;;;;13.53;8.40;;;9.90;74.50;;;;;;4974639;28;20423;-75
2022/03/11 07:51:21;;;;;;;12.27;8.70;;;9.20;75.20;;;;;;4978100;28;20512;-75
2022/03/11 07:53:47;;;;;;;15.20;8.70;;;8.90;77.70;;;;;;4977499;28;20244;-75
2022/03/11 07:56:14;;;;;;;16.27;8.63;;;9.00;78.40;;;;;;4978545;28;20430;-75
2022/03/11 07:58:41;;;;;;;16.87;9.37;;;9.40;78.20;;;;;;4977698;28;21190;-75
2022/03/11 08:01:11;;;;;;;12.60;9.13;;;9.30;77.30;;;;;;4978125;28;20444;-76
2022/03/11 08:03:38;;;;;;;13.07;7.70;;;9.30;77.40;;;;;;4978136;28;20476;-75
2022/03/11 08:06:05;;;;;;;12.70;9.03;;;9.20;78.00;;;;;;4978362;28;20421;-75
2022/03/11 08:08:31;;;;;;;15.90;9.23;;;9.10;77.50;;;;;;4978129;28;20480;-75
2022/03/11 08:10:57;;;;;;;13.47;7.80;;;9.10;77.90;;;;;;4976566;28;20437;-75
2022/03/11 08:13:23;;;;;;;11.30;8.00;;;9.20;77.80;;;;;;4978281;28;20491;-75
2022/03/11 08:15:49;;;;;;;14.70;8.97;;;9.30;79.20;;;;;;4977886;28;20224;-75
2022/03/11 08:18:15;;;;;;;14.23;8.60;;;9.50;79.10;;;;;;4977201;28;20433;-75
2022/03/11 08:20:41;;;;;;;13.80;8.27;;;9.70;78.00;;;;;;4977587;28;20185;-74
2022/03/11 08:23:07;;;;;;;14.83;9.67;;;9.80;78.70;;;;;;4978525;28;20265;-75
2022/03/11 08:25:33;;;;;;;14.77;9.40;;;9.90;78.00;;;;;;4982435;28;20772;-75
2022/03/11 08:27:59;;;;;;;15.37;8.23;;;10.20;76.10;;;;;;4981893;28;20416;-75
2022/03/11 08:30:25;;;;;;;14.87;8.30;;;10.40;76.80;;;;;;4981128;28;20421;-75
2022/03/11 08:32:53;;;;;;;15.13;8.73;;;10.70;76.90;;;;;;4925457;28;20480;-78
2022/03/11 08:35:19;;;;;;;14.17;9.37;;;10.90;76.50;;;;;;4966097;28;21313;-76
2022/03/11 08:37:46;;;;;;;22.87;9.97;;;11.20;77.40;;;;;;4980576;28;20468;-76
2022/03/11 08:40:14;;;;;;;16.50;9.90;;;11.40;78.10;;;;;;4980406;28;20480;-76
2022/03/11 08:42:41;;;;;;;14.13;9.57;;;11.30;76.30;;;;;;4981374;28;20560;-75
2022/03/11 08:45:08;;;;;;;13.90;10.20;;;11.10;77.00;;;;;;4974874;28;20508;-75
2022/03/11 08:47:34;;;;;;;16.13;9.67;;;10.70;76.50;;;;;;4979671;28;20520;-75
2022/03/11 08:50:02;;;;;;;14.20;10.27;;;10.70;78.50;;;;;;4980119;28;20445;-75
2022/03/11 08:52:28;;;;;;;19.43;9.83;;;10.60;77.20;;;;;;4979420;28;20293;-74
2022/03/11 08:54:54;;;;;;;15.93;8.90;;;10.90;77.60;;;;;;4979806;28;21034;-74
2022/03/11 08:57:20;;;;;;;12.80;8.20;;;10.80;74.50;;;;;;4980498;28;20247;-75
2022/03/11 08:59:45;;;;;;;18.50;9.90;;;10.60;75.10;;;;;;4979646;28;20223;-75
2022/03/11 09:02:13;;;;;;;12.63;9.30;;;10.60;76.00;;;;;;4980166;28;20203;-75
2022/03/11 09:04:38;;;;;;;16.17;8.77;;;10.60;76.10;;;;;;4978348;28;20923;-75
2022/03/11 09:07:04;;;;;;;13.60;8.63;;;11.20;76.30;;;;;;4987754;28;20453;-75
2022/03/11 09:09:32;;;;;;;12.90;9.20;;;11.20;74.30;;;;;;4979289;28;20218;-76
2022/03/11 09:11:58;;;;;;;17.70;8.93;;;11.10;73.80;;;;;;4979670;28;20204;-75
2022/03/11 09:14:23;;;;;;;12.67;8.40;;;10.80;74.00;;;;;;4979907;28;20449;-75
2022/03/11 09:16:49;;;;;;;14.83;9.17;;;11.10;74.10;;;;;;4980140;28;20450;-75
2022/03/11 09:19:15;;;;;;;16.40;9.17;;;11.00;74.90;;;;;;4979609;28;20207;-76
2022/03/11 09:21:41;;;;;;;14.43;9.87;;;11.00;74.90;;;;;;4979700;28;20215;-75
2022/03/11 09:24:07;;;;;;;12.07;8.57;;;11.40;75.80;;;;;;4978133;28;20225;-76
2022/03/11 09:26:32;;;;;;;21.53;9.13;;;11.80;74.60;;;;;;4978094;28;20485;-74
2022/03/11 09:28:58;;;;;;;14.93;9.23;;;11.70;73.00;;;;;;4979974;28;20445;-75
2022/03/11 09:31:24;;;;;;;18.40;9.60;;;11.80;73.30;;;;;;4978711;28;20226;-75
2022/03/11 09:33:49;;;;;;;14.50;9.33;;;11.40;73.80;;;;;;4978245;28;20261;-75
2022/03/11 09:36:15;;;;;;;18.20;9.87;;;11.10;74.20;;;;;;4979315;28;20301;-75
2022/03/11 09:38:41;;;;;;;20.03;9.83;;;11.40;74.50;;;;;;4978947;28;20288;-75
2022/03/11 09:41:07;;;;;;;12.97;8.70;;;11.10;74.20;;;;;;4979391;28;20269;-76
2022/03/11 09:43:33;;;;;;;14.53;9.00;;;11.20;74.60;;;;;;4978053;28;20274;-75
2022/03/11 09:45:59;;;;;;;17.00;10.13;;;11.40;74.90;;;;;;4979784;28;20486;-74
2022/03/11 09:48:25;;;;;;;13.33;8.60;;;11.80;74.50;;;;;;4976706;28;20452;-75
2022/03/11 09:50:51;;;;;;;17.93;9.17;;;11.90;74.60;;;;;;4978985;28;20454;-75
2022/03/11 09:53:17;;;;;;;13.20;9.00;;;12.20;74.00;;;;;;4977889;28;20574;-76
2022/03/11 09:55:43;;;;;;;14.67;9.27;;;12.40;74.80;;;;;;4974939;28;20581;-75
2022/03/11 09:58:09;;;;;;;13.90;9.70;;;12.60;73.00;;;;;;4923033;28;20454;-76
2022/03/11 10:00:38;;;;;;;13.90;10.00;;;13.00;74.10;;;;;;4920737;28;20242;-79
2022/03/11 10:03:04;;;;;;;13.80;9.13;;;13.10;73.10;;;;;;4928972;28;20474;-80
2022/03/11 10:05:48;;;;;;;19.30;10.17;;;12.70;72.60;;;;;;4925988;28;20540;-78
2022/03/11 10:08:14;;;;;;;14.73;8.90;;;12.60;73.10;;;;;;4898352;28;20574;-76
2022/03/11 10:10:39;;;;;;;15.53;9.60;;;12.70;74.50;;;;;;4923815;28;20568;-77
2022/03/11 10:13:08;;;;;;;13.50;9.33;;;13.00;73.60;;;;;;4917569;28;20781;-76
2022/03/11 10:15:34;;;;;;;18.30;10.20;;;12.80;73.90;;;;;;4920347;28;20434;-76
2022/03/11 10:18:03;;;;;;;18.67;9.73;;;12.90;72.50;;;;;;4926784;28;20433;-76
2022/03/11 10:20:32;;;;;;;17.27;10.00;;;13.20;72.70;;;;;;4919948;28;20450;-75
2022/03/11 10:22:58;;;;;;;20.23;10.00;;;13.50;72.70;;;;;;4918309;28;20590;-73
2022/03/11 10:25:28;;;;;;;15.03;9.83;;;13.90;73.00;;;;;;4913553;28;20684;-73
2022/03/11 10:28:03;;;;;;;14.70;9.40;;;13.70;71.60;;;;;;4931332;28;20334;-73
2022/03/11 10:30:37;;;;;;;19.73;9.73;;;13.70;71.00;;;;;;4925563;28;20446;-72
2022/03/11 10:33:06;;;;;;;13.77;8.80;;;13.80;70.90;;;;;;4925530;28;20462;-73
2022/03/11 10:35:52;;;;;;;15.43;10.10;;;14.50;72.90;;;;;;4922459;28;20442;-72
2022/03/11 10:38:26;;;;;;;15.50;10.60;;;14.60;70.00;;;;;;4924189;28;20453;-72
2022/03/11 10:40:54;;;;;;;13.80;9.20;;;14.80;69.30;;;;;;4932448;28;20887;-76
2022/03/11 10:43:30;;;;;;;17.77;10.13;;;14.70;69.80;;;;;;4923784;28;20481;-73
2022/03/11 10:46:02;;;;;;;17.60;9.07;;;14.40;69.10;;;;;;4930494;28;20465;-76
2022/03/11 10:48:45;;;;;;;16.70;9.93;;;14.40;69.30;;;;;;4919272;28;21033;-76
2022/03/11 10:51:33;;;;;;;15.07;10.73;;;14.40;69.70;;;;;;4916010;28;20428;-75
2022/03/11 10:54:01;;;;;;;10.70;9.50;;;14.80;71.70;;;;;;4929832;28;20458;-75
2022/03/11 10:56:35;;;;;;;20.03;10.13;;;14.60;69.20;;;;;;4939437;28;21012;-75
2022/03/11 10:59:13;;;;;;;16.30;10.70;;;14.90;69.00;;;;;;4921598;28;20517;-76
2022/03/11 11:01:40;;;;;;;20.00;9.47;;;14.60;70.00;;;;;;4911186;28;20459;-75
2022/03/11 11:04:09;;;;;;;18.90;11.10;;;14.80;70.60;;;;;;4913320;28;20471;-73
2022/03/11 11:06:36;;;;;;;13.73;9.43;;;14.80;69.60;;;;;;4919005;28;20462;-73
2022/03/11 11:09:03;;;;;;;16.10;9.33;;;15.00;69.00;;;;;;4930600;28;20439;-74
2022/03/11 11:11:30;;;;;;;15.10;9.60;;;15.10;69.40;;;;;;4917082;28;21025;-74
2022/03/11 11:13:58;;;;;;;14.07;8.97;;;14.80;69.00;;;;;;4916770;28;20468;-75
2022/03/11 11:16:27;;;;;;;20.10;9.40;;;14.90;69.60;;;;;;4920260;28;20439;-74
2022/03/11 11:18:57;;;;;;;17.03;10.43;;;14.50;69.40;;;;;;4907196;28;20467;-74
2022/03/11 11:21:24;;;;;;;14.90;10.77;;;14.80;69.90;;;;;;4949054;28;20919;-74
2022/03/11 11:23:55;;;;;;;17.73;10.47;;;15.40;71.20;;;;;;4976881;28;20558;-73
2022/03/11 11:26:23;;;;;;;10.67;8.83;;;15.30;68.20;;;;;;4978818;28;20760;-74
2022/03/11 11:28:54;;;;;;;25.17;9.87;;;15.30;70.40;;;;;;4978917;28;20403;-72
2022/03/11 11:31:21;;;;;;;21.70;10.33;;;15.40;69.10;;;;;;4979286;28;20477;-77
2022/03/11 11:33:48;;;;;;;18.70;10.90;;;15.20;69.30;;;;;;4978568;28;20517;-73
2022/03/11 11:36:31;;;;;;;19.63;10.80;;;15.30;70.00;;;;;;4977314;28;20907;-73
2022/03/11 11:39:01;;;;;;;16.77;10.47;;;15.00;69.00;;;;;;4972657;28;20791;-73
2022/03/11 11:41:27;;;;;;;14.43;9.83;;;14.50;71.20;;;;;;4978873;28;20435;-75
2022/03/11 11:43:59;;;;;;;13.87;9.73;;;14.70;71.10;;;;;;4962181;28;20461;-75
2022/03/11 11:46:26;;;;;;;19.10;11.00;;;14.60;69.40;;;;;;4973935;28;20493;-75
2022/03/11 11:48:52;;;;;;;17.53;10.73;;;14.60;69.60;;;;;;4988915;28;20418;-75
2022/03/11 11:51:23;;;;;;;15.33;9.27;;;14.40;69.90;;;;;;4988594;28;20422;-77
2022/03/11 11:53:56;;;;;;;15.33;10.43;;;14.50;69.60;;;;;;4989183;28;20415;-77
2022/03/11 11:56:33;;;;;;;16.80;9.90;;;14.60;70.70;;;;;;4989564;28;20453;-77
2022/03/11 11:59:02;;;;;;;19.70;12.83;;;14.80;71.80;;;;;;4990214;28;20405;-77
2022/03/11 12:01:44;;;;;;;17.27;11.40;;;15.00;70.70;;;;;;4991145;28;20437;-77
2022/03/11 12:04:19;;;;;;;14.37;10.83;;;15.00;70.10;;;;;;4990432;28;20461;-77
2022/03/11 12:07:09;;;;;;;14.97;11.20;;;15.00;71.20;;;;;;4990429;28;20398;-77
2022/03/11 12:12:32;;;;;;;13.47;9.80;;;14.50;70.90;;;;;;4990668;28;20770;-78
2022/03/11 12:15:01;;;;;;;13.40;9.87;;;14.30;70.30;;;;;;4974144;28;20419;-77
2022/03/11 12:17:46;;;;;;;14.87;10.03;;;14.20;72.90;;;;;;4992044;28;20414;-77
2022/03/11 12:23:07;;;;;;;22.07;11.17;;;14.40;72.60;;;;;;4990891;28;20454;-77
2022/03/11 12:25:53;;;;;;;18.20;9.93;;;14.30;71.00;;;;;;4990762;28;21041;-77
2022/03/11 12:28:34;;;;;;;19.17;9.37;;;14.20;72.40;;;;;;4990660;28;20407;-76
2022/03/11 12:31:08;;;;;;;13.87;10.03;;;14.30;72.00;;;;;;4990562;28;20434;-76
2022/03/11 12:33:48;;;;;;;12.40;9.70;;;14.30;72.20;;;;;;4989981;28;20422;-76
2022/03/11 12:36:19;;;;;;;13.27;10.00;;;14.20;71.40;;;;;;4990416;28;20553;-76
2022/03/11 12:38:45;;;;;;;13.60;9.20;;;14.10;71.60;;;;;;4990596;28;20818;-76
2022/03/11 12:41:23;;;;;;;17.40;10.60;;;14.00;73.00;;;;;;4990455;28;20469;-76
2022/03/11 12:43:48;;;;;;;13.00;10.23;;;14.00;71.90;;;;;;4989984;28;20454;-77
2022/03/11 12:46:14;;;;;;;15.10;9.87;;;13.90;72.20;;;;;;4989832;28;20430;-76
2022/03/11 12:48:42;;;;;;;17.53;8.30;;;13.70;72.30;;;;;;4990723;28;20242;-76
2022/03/11 12:51:11;;;;;;;17.77;11.20;;;13.80;72.90;;;;;;4990485;28;20203;-76
2022/03/11 12:53:38;;;;;;;13.70;9.53;;;13.90;72.50;;;;;;4989817;28;20429;-75
2022/03/11 12:56:05;;;;;;;14.97;9.90;;;13.90;73.20;;;;;;4992053;28;20415;-74
2022/03/11 12:58:33;;;;;;;17.10;10.90;;;13.80;73.20;;;;;;4984313;28;20795;-73
2022/03/11 13:01:06;;;;;;;14.90;9.67;;;13.70;75.40;;;;;;4983541;28;20969;-74
2022/03/11 13:03:33;;;;;;;18.50;9.90;;;13.80;75.60;;;;;;4989408;28;20502;-72
2022/03/11 13:06:04;;;;;;;15.80;10.33;;;13.80;74.00;;;;;;4978908;28;20458;-75
2022/03/11 13:08:31;;;;;;;13.80;9.57;;;13.90;74.70;;;;;;4990703;28;20872;-76
2022/03/11 13:10:57;;;;;;;15.23;9.83;;;14.00;73.90;;;;;;4990089;28;20678;-76
2022/03/11 13:13:24;;;;;;;14.80;10.50;;;14.00;73.50;;;;;;4966781;28;20435;-75
2022/03/11 13:15:52;;;;;;;15.30;10.47;;;14.00;74.30;;;;;;4972733;28;20435;-75
2022/03/11 13:18:20;;;;;;;20.70;10.90;;;13.90;73.70;;;;;;4969665;28;20460;-76
2022/03/11 13:20:53;;;;;;;16.47;10.50;;;13.70;73.00;;;;;;4986003;28;20962;-77
2022/03/11 13:23:28;;;;;;;15.33;10.70;;;13.80;73.40;;;;;;4995323;28;20450;-75
2022/03/11 13:25:58;;;;;;;15.73;10.27;;;13.70;72.90;;;;;;4976924;28;20406;-76
2022/03/11 13:28:31;;;;;;;20.63;11.93;;;13.70;73.60;;;;;;4979294;28;20423;-75
2022/03/11 13:31:21;;;;;;;17.07;10.77;;;13.70;74.00;;;;;;4970750;28;20471;-77
2022/03/11 13:33:57;;;;;;;15.33;10.07;;;13.80;74.50;;;;;;4986884;28;21136;-75
2022/03/11 13:36:25;;;;;;;15.67;10.43;;;13.90;75.00;;;;;;4978032;28;20454;-77
2022/03/11 13:39:03;;;;;;;16.83;10.50;;;13.80;73.70;;;;;;4966229;28;21197;-77
2022/03/11 13:41:47;;;;;;;17.87;10.40;;;13.80;74.10;;;;;;4966076;28;20491;-76
2022/03/11 13:44:38;;;;;;;16.17;10.80;;;13.80;74.10;;;;;;4975937;28;20477;-76
2022/03/11 13:47:06;;;;;;;17.00;10.63;;;13.70;73.60;;;;;;4969004;28;20446;-76
2022/03/11 13:49:43;;;;;;;15.63;11.23;;;13.80;74.00;;;;;;4981137;28;20467;-77
2022/03/11 13:52:14;;;;;;;16.80;11.00;;;13.80;74.60;;;;;;4981600;28;20486;-78
2022/03/11 13:54:45;;;;;;;17.03;9.50;;;13.90;75.50;;;;;;4965250;28;20432;-77
2022/03/11 13:57:19;;;;;;;19.03;10.10;;;13.90;73.90;;;;;;4972610;28;20435;-77
2022/03/11 13:59:47;;;;;;;17.40;10.20;;;13.90;75.40;;;;;;4974113;28;20834;-77
2022/03/11 14:02:17;;;;;;;17.23;10.87;;;13.80;73.80;;;;;;4975307;28;20458;-77
2022/03/11 14:04:44;;;;;;;21.43;10.30;;;13.90;73.90;;;;;;4986505;28;20581;-77
2022/03/11 14:07:27;;;;;;;20.73;11.70;;;14.00;74.00;;;;;;4964685;28;20462;-77
2022/03/11 14:09:57;;;;;;;14.47;10.60;;;14.10;74.10;;;;;;4970822;28;20415;-77
2022/03/11 14:12:27;;;;;;;18.10;10.97;;;14.10;74.30;;;;;;4972649;28;20450;-77
2022/03/11 14:15:06;;;;;;;14.57;8.70;;;14.10;73.70;;;;;;4970548;28;20420;-75
2022/03/11 14:17:35;;;;;;;16.27;10.40;;;14.10;73.90;;;;;;4969502;28;20527;-73